createdAt,value
2023-04-03T00:01:14.764Z,8.34
2023-04-03T00:03:44.890Z,8.29
2023-04-03T00:06:13.147Z,8.42
2023-04-03T00:08:41.568Z,8.47
2023-04-03T00:11:09.806Z,8.56
2023-04-03T00:13:37.743Z,8.77
2023-04-03T00:16:05.561Z,9.10
2023-04-03T00:18:32.986Z,9.18
2023-04-03T00:21:00.249Z,9.06
2023-04-03T00:23:27.476Z,8.99
2023-04-03T00:25:54.827Z,9.08
2023-04-03T00:28:22.177Z,9.19
2023-04-03T00:30:52.795Z,9.17
2023-04-03T00:33:22.966Z,9.38
2023-04-03T00:35:50.853Z,9.55
2023-04-03T00:38:18.792Z,9.62
2023-04-03T00:40:48.925Z,9.65
2023-04-03T00:43:22.528Z,9.65
2023-04-03T00:45:55.567Z,9.37
2023-04-03T00:48:45.301Z,9.29
2023-04-03T00:51:16.496Z,9.34
2023-04-03T00:53:56.145Z,9.59
2023-04-03T00:56:26.373Z,9.90
2023-04-03T00:59:03.227Z,9.64
2023-04-03T01:01:31.814Z,9.43
2023-04-03T01:04:04.161Z,9.03
2023-04-03T01:06:36.389Z,8.68
2023-04-03T01:09:13.335Z,8.63
2023-04-03T01:11:40.755Z,8.70
2023-04-03T01:14:08.229Z,8.43
2023-04-03T01:16:35.998Z,8.30
2023-04-03T01:19:06.902Z,8.32
2023-04-03T01:21:49.731Z,8.22
2023-04-03T01:24:26.424Z,8.08
2023-04-03T01:26:53.550Z,8.11
2023-04-03T01:29:20.952Z,8.26
2023-04-03T01:31:54.449Z,8.32
2023-04-03T01:34:22.206Z,8.30
2023-04-03T01:36:51.721Z,8.21
2023-04-03T01:39:19.517Z,8.01
2023-04-03T01:41:48.219Z,7.89
2023-04-03T01:44:22.700Z,7.88
2023-04-03T01:46:50.436Z,7.98
2023-04-03T01:49:18.030Z,8.07
2023-04-03T01:51:45.780Z,8.21
2023-04-03T01:54:13.629Z,8.24
2023-04-03T01:56:40.787Z,8.13
2023-04-03T01:59:08.942Z,8.07
2023-04-03T02:01:36.559Z,8.04
2023-04-03T02:04:04.349Z,7.96
2023-04-03T02:06:31.539Z,7.91
2023-04-03T02:08:58.845Z,7.86
2023-04-03T02:11:25.985Z,7.72
2023-04-03T02:13:53.612Z,7.75
2023-04-03T02:16:20.717Z,7.85
2023-04-03T02:18:51.421Z,7.82
2023-04-03T02:21:19.064Z,7.78
2023-04-03T02:23:46.190Z,7.74
2023-04-03T02:26:16.413Z,7.75
2023-04-03T02:28:46.438Z,7.71
2023-04-03T02:31:13.807Z,7.59
2023-04-03T02:33:42.806Z,7.74
2023-04-03T02:36:12.068Z,7.46
2023-04-03T02:38:43.109Z,6.84
2023-04-03T02:41:13.088Z,6.79
2023-04-03T02:43:41.037Z,6.53
2023-04-03T02:46:08.729Z,6.22
2023-04-03T02:48:36.484Z,6.16
2023-04-03T02:51:03.797Z,6.17
2023-04-03T02:53:30.844Z,6.08
2023-04-03T02:55:59.784Z,5.93
2023-04-03T02:58:26.926Z,5.91
2023-04-03T03:00:57.129Z,5.87
2023-04-03T03:03:24.312Z,5.80
2023-04-03T03:05:51.437Z,6.00
2023-04-03T03:08:21.378Z,5.99
2023-04-03T03:10:48.587Z,6.00
2023-04-03T03:13:15.719Z,6.17
2023-04-03T03:15:42.861Z,6.29
2023-04-03T03:18:10.020Z,6.32
2023-04-03T03:20:37.424Z,6.43
2023-04-03T03:23:05.010Z,6.20
2023-04-03T03:25:32.077Z,6.13
2023-04-03T03:27:59.166Z,6.10
2023-04-03T03:30:27.240Z,5.84
2023-04-03T03:32:54.495Z,5.70
2023-04-03T03:35:21.589Z,5.75
2023-04-03T03:37:48.691Z,5.59
2023-04-03T03:40:16.021Z,5.62
2023-04-03T03:42:45.863Z,5.63
2023-04-03T03:45:13.482Z,5.63
2023-04-03T03:47:42.490Z,5.52
2023-04-03T03:50:10.111Z,5.58
2023-04-03T03:52:37.318Z,5.68
2023-04-03T03:55:04.711Z,5.66
2023-04-03T03:57:32.786Z,5.47
2023-04-03T03:59:59.882Z,5.49
2023-04-03T04:02:27.333Z,5.39
2023-04-03T04:04:54.630Z,5.50
2023-04-03T04:07:22.660Z,5.70
2023-04-03T04:09:50.375Z,5.82
2023-04-03T04:12:17.693Z,5.77
2023-04-03T04:14:47.745Z,5.76
2023-04-03T04:17:16.316Z,5.82
2023-04-03T04:19:43.508Z,5.87
2023-04-03T04:22:10.582Z,5.90
2023-04-03T04:24:38.639Z,6.06
2023-04-03T04:27:08.536Z,6.21
2023-04-03T04:29:38.269Z,6.26
2023-04-03T04:32:07.545Z,6.31
2023-04-03T04:34:36.155Z,6.42
2023-04-03T04:37:04.058Z,6.44
2023-04-03T04:39:31.507Z,6.51
2023-04-03T04:41:59.562Z,6.62
2023-04-03T04:44:29.430Z,6.76
2023-04-03T04:46:56.546Z,6.81
2023-04-03T04:49:23.646Z,6.79
2023-04-03T04:51:52.212Z,6.84
2023-04-03T04:54:25.705Z,6.97
2023-04-03T04:56:53.535Z,7.12
2023-04-03T04:59:22.105Z,7.14
2023-04-03T05:01:51.240Z,7.11
2023-04-03T05:04:19.207Z,7.10
2023-04-03T05:06:50.637Z,7.14
2023-04-03T05:09:22.773Z,7.31
2023-04-03T05:11:51.584Z,7.36
2023-04-03T05:14:21.777Z,7.54
2023-04-03T05:16:53.842Z,7.72
2023-04-03T05:19:23.603Z,7.89
2023-04-03T05:21:52.245Z,7.95
2023-04-03T05:24:19.975Z,8.01
2023-04-03T05:26:47.681Z,8.10
2023-04-03T05:29:16.657Z,8.26
2023-04-03T05:31:44.490Z,8.47
2023-04-03T05:34:14.281Z,8.57
2023-04-03T05:36:42.964Z,8.73
2023-04-03T05:39:11.649Z,8.77
2023-04-03T05:41:42.380Z,8.86
2023-04-03T05:44:09.571Z,8.88
2023-04-03T05:46:37.012Z,8.93
2023-04-03T05:49:07.243Z,8.89
2023-04-03T05:51:38.143Z,8.88
2023-04-03T05:54:35.385Z,9.14
2023-04-03T05:57:17.765Z,9.28
2023-04-03T05:59:46.724Z,9.52
2023-04-03T06:02:17.634Z,9.69
2023-04-03T06:04:48.949Z,9.60
2023-04-03T06:07:19.440Z,9.61
2023-04-03T06:09:46.822Z,9.76
2023-04-03T06:12:14.541Z,10.15
2023-04-03T06:14:42.151Z,10.02
2023-04-03T06:17:10.246Z,9.99
2023-04-03T06:19:37.889Z,10.20
2023-04-03T06:22:05.925Z,10.21
2023-04-03T06:24:33.281Z,10.42
2023-04-03T06:27:00.898Z,10.23
2023-04-03T06:29:28.009Z,10.26
2023-04-03T06:31:55.334Z,10.30
2023-04-03T06:34:22.592Z,10.73
2023-04-03T06:36:50.097Z,10.53
2023-04-03T06:39:26.638Z,10.35
2023-04-03T06:41:53.969Z,10.49
2023-04-03T06:44:29.468Z,10.52
2023-04-03T06:46:56.587Z,10.57
2023-04-03T06:49:23.653Z,10.72
2023-04-03T06:51:51.585Z,10.93
2023-04-03T06:54:19.894Z,10.87
2023-04-03T06:56:47.535Z,11.10
2023-04-03T06:59:15.913Z,11.26
2023-04-03T07:01:43.844Z,11.35
2023-04-03T07:04:11.465Z,11.35
2023-04-03T07:06:38.667Z,11.41
2023-04-03T07:09:05.714Z,11.65
2023-04-03T07:11:32.830Z,11.65
2023-04-03T07:13:59.943Z,11.76
2023-04-03T07:16:28.006Z,11.98
2023-04-03T07:18:55.218Z,12.04
2023-04-03T07:21:22.509Z,11.91
2023-04-03T07:26:22.286Z,12.35
2023-04-03T07:28:50.979Z,12.65
2023-04-03T07:31:19.481Z,12.42
2023-04-03T07:33:47.044Z,12.14
2023-04-03T07:36:20.548Z,12.28
2023-04-03T07:38:47.725Z,12.31
2023-04-03T07:41:21.225Z,12.68
2023-04-03T07:43:48.346Z,12.59
2023-04-03T07:46:15.616Z,12.51
2023-04-03T07:48:42.795Z,12.32
2023-04-03T07:51:11.841Z,12.22
2023-04-03T07:53:39.070Z,12.28
2023-04-03T07:56:06.581Z,12.45
2023-04-03T07:58:34.179Z,12.55
2023-04-03T08:01:01.626Z,12.64
2023-04-03T08:03:28.906Z,12.58
2023-04-03T08:05:56.301Z,12.56
2023-04-03T08:08:23.995Z,12.71
2023-04-03T08:10:55.024Z,13.19
2023-04-03T08:13:22.782Z,13.49
2023-04-03T08:15:50.245Z,13.72
2023-04-03T08:18:17.625Z,13.29
2023-04-03T08:20:45.877Z,13.13
2023-04-03T08:23:13.152Z,13.32
2023-04-03T08:25:41.978Z,13.21
2023-04-03T08:28:10.311Z,13.21
2023-04-03T08:30:39.662Z,13.41
2023-04-03T08:33:07.381Z,13.35
2023-04-03T08:35:36.294Z,13.44
2023-04-03T08:38:04.688Z,14.01
2023-04-03T08:40:32.163Z,14.18
2023-04-03T08:43:08.086Z,14.05
2023-04-03T08:45:52.325Z,13.87
2023-04-03T08:48:32.447Z,13.78
2023-04-03T08:51:10.830Z,13.98
2023-04-03T08:53:42.508Z,14.48
2023-04-03T08:56:11.293Z,14.39
2023-04-03T08:58:49.152Z,14.78
2023-04-03T09:01:22.509Z,14.41
2023-04-03T09:03:49.719Z,15.24
2023-04-03T09:06:31.792Z,15.36
2023-04-03T09:09:04.457Z,15.04
2023-04-03T09:11:42.575Z,15.20
2023-04-03T09:14:09.617Z,15.03
2023-04-03T09:16:59.698Z,15.81
2023-04-03T09:19:32.588Z,15.81
2023-04-03T09:22:14.858Z,15.78
2023-04-03T09:24:43.434Z,15.87
2023-04-03T09:27:13.247Z,15.92
2023-04-03T09:29:47.213Z,15.99
2023-04-03T09:32:37.863Z,16.17
2023-04-03T09:35:19.786Z,16.21
2023-04-03T09:38:02.531Z,16.69
2023-04-03T09:40:36.678Z,16.58
2023-04-03T09:43:25.974Z,16.65
2023-04-03T10:18:21.702Z,14.58
2023-04-03T10:20:53.860Z,14.64
2023-04-03T10:23:34.329Z,14.88
2023-04-03T10:26:38.834Z,14.98
2023-04-03T10:29:26.607Z,14.96
2023-04-03T10:31:56.553Z,15.44
2023-04-03T10:34:23.646Z,15.48
2023-04-03T10:36:56.590Z,15.57
2023-04-03T10:39:36.181Z,15.41
2023-04-03T10:42:17.202Z,15.36
2023-04-03T10:45:09.608Z,15.42
2023-04-03T10:48:01.400Z,15.31
2023-04-03T10:50:31.410Z,15.71
2023-04-03T10:53:11.928Z,15.95
2023-04-03T10:55:53.894Z,15.09
2023-04-03T10:58:38.109Z,15.47
2023-04-03T11:01:28.547Z,15.87
2023-04-03T11:04:00.284Z,15.53
2023-04-03T11:07:05.988Z,15.74
2023-04-03T11:09:38.876Z,14.80
2023-04-03T11:12:15.144Z,15.53
2023-04-03T11:14:42.858Z,15.87
2023-04-03T11:17:24.824Z,16.08
2023-04-03T11:20:11.957Z,16.16
2023-04-03T11:23:07.829Z,16.31
2023-04-03T11:25:38.581Z,16.14
2023-04-03T11:28:15.022Z,15.98
2023-04-03T11:30:53.502Z,15.61
2023-04-03T11:33:32.561Z,15.62
2023-04-03T11:36:19.087Z,15.83
2023-04-03T11:39:00.485Z,15.74
2023-04-03T11:41:32.642Z,15.75
2023-04-03T11:44:07.127Z,15.76
2023-04-03T11:46:53.234Z,15.74
2023-04-03T11:50:03.940Z,15.67
2023-04-03T11:52:43.151Z,15.43
2023-04-03T11:55:22.982Z,15.70
2023-04-03T11:57:59.022Z,16.02
2023-04-03T12:01:03.980Z,16.03
2023-04-03T12:03:53.555Z,16.14
2023-04-03T12:06:20.786Z,15.24
2023-04-03T12:08:49.749Z,15.69
2023-04-03T12:11:27.674Z,15.94
2023-04-03T12:13:57.874Z,15.69
2023-04-03T12:16:39.188Z,15.96
2023-04-03T12:19:15.241Z,15.66
2023-04-03T12:21:49.018Z,15.70
2023-04-03T12:24:20.402Z,15.56
2023-04-03T12:27:11.243Z,15.68
2023-04-03T12:29:43.879Z,15.33
2023-04-03T12:32:23.888Z,14.57
2023-04-03T12:35:06.611Z,14.98
2023-04-03T12:37:55.387Z,14.79
2023-04-03T12:40:32.910Z,15.04
2023-04-03T12:43:16.082Z,14.82
2023-04-03T12:45:50.232Z,14.82
2023-04-03T12:48:22.357Z,14.96
2023-04-03T12:50:51.146Z,15.18
2023-04-03T12:53:23.699Z,15.02
2023-04-03T12:55:58.152Z,14.76
2023-04-03T12:58:29.639Z,14.87
2023-04-03T13:01:11.616Z,14.75
2023-04-03T13:03:44.311Z,14.66
2023-04-03T13:06:25.490Z,13.97
2023-04-03T13:08:55.441Z,13.62
2023-04-03T13:11:23.423Z,13.78
2023-04-03T13:14:08.757Z,14.27
2023-04-03T13:16:36.864Z,13.88
2023-04-03T13:19:04.202Z,13.44
2023-04-03T13:21:35.205Z,13.62
2023-04-03T13:24:14.943Z,13.37
2023-04-03T13:26:43.996Z,13.46
2023-04-03T13:29:35.937Z,13.80
2023-04-03T13:32:06.179Z,13.85
2023-04-03T13:34:45.242Z,12.86
2023-04-03T13:37:32.359Z,13.36
2023-04-03T13:40:12.329Z,13.23
2023-04-03T13:42:44.599Z,13.47
2023-04-03T13:45:21.334Z,13.62
2023-04-03T13:47:50.849Z,12.79
2023-04-03T13:50:23.553Z,13.12
2023-04-03T13:52:55.299Z,13.16
2023-04-03T13:55:38.434Z,13.11
2023-04-03T13:58:08.709Z,12.72
2023-04-03T14:00:56.470Z,12.64
2023-04-03T14:03:35.468Z,12.79
2023-04-03T14:06:02.869Z,12.84
2023-04-03T14:08:42.293Z,12.91
2023-04-03T14:11:20.024Z,12.84
2023-04-03T14:13:48.344Z,12.79
2023-04-03T14:16:20.356Z,12.65
2023-04-03T14:18:48.998Z,12.72
2023-04-03T14:21:17.887Z,12.38
2023-04-03T14:23:45.773Z,12.52
2023-04-03T14:26:19.658Z,12.02
2023-04-03T14:28:49.652Z,11.88
2023-04-03T14:31:17.468Z,11.93
2023-04-03T14:33:45.555Z,11.80
2023-04-03T14:36:18.172Z,11.76
2023-04-03T14:38:46.444Z,11.82
2023-04-03T14:41:16.994Z,11.92
2023-04-03T14:43:45.637Z,11.85
2023-04-03T14:46:14.832Z,11.65
2023-04-03T14:48:42.060Z,10.93
2023-04-03T14:51:12.228Z,10.82
2023-04-03T14:53:40.453Z,10.91
2023-04-03T14:56:28.403Z,11.05
2023-04-03T14:58:58.469Z,10.91
2023-04-03T15:01:26.478Z,10.93
2023-04-03T15:03:53.839Z,10.32
2023-04-03T15:06:22.072Z,10.05
2023-04-03T15:08:49.687Z,10.20
2023-04-03T15:11:17.256Z,10.45
2023-04-03T15:13:44.593Z,10.30
2023-04-03T15:16:18.276Z,9.83
2023-04-03T15:18:47.217Z,9.58
2023-04-03T15:21:14.732Z,9.59
2023-04-03T15:23:41.848Z,9.53
2023-04-03T15:26:09.159Z,9.61
2023-04-03T15:28:37.514Z,9.54
2023-04-03T15:31:05.917Z,9.56
2023-04-03T15:33:34.537Z,9.51
2023-04-03T15:36:07.307Z,9.41
2023-04-03T15:38:39.629Z,9.35
2023-04-03T15:41:06.916Z,9.26
2023-04-03T15:43:35.027Z,9.21
2023-04-03T15:46:02.956Z,9.26
2023-04-03T15:48:31.281Z,9.19
2023-04-03T15:50:59.340Z,9.18
2023-04-03T15:53:27.054Z,9.18
2023-04-03T15:55:54.240Z,9.12
2023-04-03T15:58:21.364Z,9.08
2023-04-03T16:00:48.668Z,9.05
2023-04-03T16:03:21.258Z,8.98
2023-04-03T16:05:49.108Z,8.93
2023-04-03T16:08:17.159Z,8.89
2023-04-03T16:10:46.351Z,8.83
2023-04-03T16:13:13.857Z,8.76
2023-04-03T16:15:41.786Z,8.68
2023-04-03T16:18:10.188Z,8.69
2023-04-03T16:20:38.012Z,8.71
2023-04-03T16:23:05.525Z,8.66
2023-04-03T16:25:32.642Z,8.58
2023-04-03T16:27:59.803Z,8.55
2023-04-03T16:30:27.230Z,8.51
2023-04-03T16:32:54.828Z,8.54
2023-04-03T16:35:22.315Z,8.50
2023-04-03T16:37:49.572Z,8.49
2023-04-03T16:40:17.283Z,8.56
2023-04-03T16:42:44.544Z,8.60
2023-04-03T16:45:12.037Z,8.65
2023-04-03T16:47:39.201Z,8.55
2023-04-03T16:50:06.975Z,8.52
2023-04-03T16:52:34.325Z,8.53
2023-04-03T16:55:01.466Z,8.68
2023-04-03T16:57:28.599Z,9.05
2023-04-03T16:59:56.230Z,9.30
2023-04-03T17:02:27.937Z,9.29
2023-04-03T17:04:55.436Z,9.41
2023-04-03T17:07:24.457Z,9.50
2023-04-03T17:09:54.521Z,9.17
2023-04-03T17:12:22.626Z,8.87
2023-04-03T17:14:49.919Z,8.75
2023-04-03T17:17:21.325Z,8.64
2023-04-03T17:19:48.655Z,8.47
2023-04-03T17:22:17.648Z,8.53
2023-04-03T17:24:45.463Z,8.46
2023-04-03T17:27:12.708Z,8.52
2023-04-03T17:29:39.933Z,8.41
2023-04-03T17:32:07.262Z,8.34
2023-04-03T17:34:34.544Z,8.31
2023-04-03T17:37:01.709Z,8.23
2023-04-03T17:39:28.928Z,8.22
2023-04-03T17:41:56.264Z,8.17
2023-04-03T17:44:23.561Z,8.16
2023-04-03T17:46:50.796Z,8.20
2023-04-03T17:49:18.937Z,8.21
2023-04-03T17:51:46.574Z,8.17
2023-04-03T17:54:13.755Z,8.10
2023-04-03T17:56:47.752Z,8.05
2023-04-03T17:59:16.729Z,8.12
2023-04-03T18:01:46.136Z,8.20
2023-04-03T18:04:14.180Z,8.13
2023-04-03T18:06:45.960Z,8.14
2023-04-03T18:09:17.810Z,8.06
2023-04-03T18:11:47.649Z,8.11
2023-04-03T18:14:18.089Z,8.04
2023-04-03T18:16:45.382Z,8.08
2023-04-03T18:19:22.796Z,8.03
2023-04-03T18:21:57.224Z,7.93
2023-04-03T18:24:26.405Z,7.94
2023-04-03T18:27:06.315Z,7.84
2023-04-03T18:29:36.610Z,8.01
2023-04-03T18:32:04.699Z,7.82
2023-04-03T18:34:32.744Z,7.90
2023-04-03T18:37:00.381Z,7.82
2023-04-03T18:39:27.908Z,7.69
2023-04-03T18:41:56.619Z,7.60
2023-04-03T18:44:25.707Z,7.62
2023-04-03T18:46:54.145Z,7.63
2023-04-03T18:49:21.546Z,7.59
2023-04-03T18:51:48.716Z,7.52
2023-04-03T18:54:16.523Z,7.44
2023-04-03T18:56:43.678Z,7.42
2023-04-03T18:59:10.928Z,7.49
2023-04-03T19:01:38.025Z,7.48
2023-04-03T19:04:05.197Z,7.52
2023-04-03T19:06:34.777Z,7.49
2023-04-03T19:09:03.069Z,7.43
2023-04-03T19:11:31.515Z,7.43
2023-04-03T19:14:14.470Z,7.47
2023-04-03T19:16:43.777Z,7.57
2023-04-03T19:19:11.302Z,7.46
2023-04-03T19:21:41.417Z,7.43
2023-04-03T19:24:11.386Z,7.44
2023-04-03T19:26:39.485Z,7.39
2023-04-03T19:29:07.380Z,7.57
2023-04-03T19:31:36.916Z,7.63
2023-04-03T19:34:05.796Z,7.63
2023-04-03T19:36:34.146Z,7.59
2023-04-03T19:39:01.418Z,7.52
2023-04-03T19:41:31.767Z,7.56
2023-04-03T19:43:59.115Z,7.58
2023-04-03T19:46:28.132Z,7.63
2023-04-03T19:48:55.629Z,7.58
2023-04-03T19:51:22.798Z,7.57
2023-04-03T19:53:50.061Z,7.62
2023-04-03T19:56:17.588Z,7.57
2023-04-03T19:58:45.176Z,7.61
2023-04-03T20:01:13.188Z,7.65
2023-04-03T20:03:42.811Z,7.68
2023-04-03T20:06:09.938Z,7.63
2023-04-03T20:08:37.199Z,7.64
2023-04-03T20:11:04.365Z,7.59
2023-04-03T20:13:33.256Z,7.62
2023-04-03T20:16:05.136Z,7.63
2023-04-03T20:18:33.411Z,7.65
2023-04-03T20:21:03.072Z,7.60
2023-04-03T20:23:30.933Z,7.56
2023-04-03T20:26:09.519Z,7.59
2023-04-03T20:28:40.071Z,7.57
2023-04-03T20:31:08.006Z,7.52
2023-04-03T20:33:35.976Z,7.39
2023-04-03T20:36:04.318Z,7.37
2023-04-03T20:38:31.388Z,7.46
2023-04-03T20:40:58.540Z,7.48
2023-04-03T20:43:25.766Z,7.53
2023-04-03T20:45:53.275Z,7.67
2023-04-03T20:48:20.428Z,7.54
2023-04-03T20:50:47.746Z,7.54
2023-04-03T20:53:18.155Z,7.68
2023-04-03T20:56:01.291Z,7.64
2023-04-03T20:58:33.412Z,7.61
2023-04-03T21:01:01.326Z,7.34
2023-04-03T21:03:30.439Z,7.32
2023-04-03T21:06:00.571Z,7.38
2023-04-03T21:09:05.634Z,7.55
2023-04-03T21:12:09.884Z,7.37
2023-04-03T21:15:14.818Z,7.25
2023-04-03T21:18:06.818Z,7.22
2023-04-03T21:20:34.010Z,7.29
2023-04-03T21:23:01.152Z,7.29
2023-04-03T21:25:28.545Z,7.36
2023-04-03T21:27:55.943Z,7.25
2023-04-03T21:30:23.047Z,7.41
2023-04-03T21:32:50.145Z,7.39
2023-04-03T21:35:17.345Z,7.40
2023-04-03T21:37:44.459Z,7.30
2023-04-03T21:40:11.721Z,7.34
2023-04-03T21:42:39.265Z,7.30
2023-04-03T21:45:06.762Z,7.38
2023-04-03T21:47:35.734Z,7.31
2023-04-03T21:50:03.549Z,7.35
2023-04-03T21:52:30.785Z,7.35
2023-04-03T21:54:58.031Z,7.35
2023-04-03T21:57:25.434Z,7.48
2023-04-03T21:59:52.579Z,7.41
2023-04-03T22:02:19.646Z,7.48
2023-04-03T22:04:47.782Z,7.41
2023-04-03T22:07:14.890Z,7.54
2023-04-03T22:09:42.172Z,7.32
2023-04-03T22:12:11.934Z,7.24
2023-04-03T22:14:39.640Z,7.30
2023-04-03T22:17:07.351Z,7.13
2023-04-03T22:19:34.601Z,7.06
2023-04-03T22:22:03.802Z,7.11
2023-04-03T22:24:31.246Z,7.03
2023-04-03T22:26:58.348Z,7.11
2023-04-03T22:29:25.570Z,7.05
2023-04-03T22:31:52.721Z,7.00
2023-04-03T22:34:20.770Z,7.01
2023-04-03T22:36:48.122Z,6.99
2023-04-03T22:39:16.600Z,7.02
2023-04-03T22:41:45.409Z,6.99
2023-04-03T22:44:13.032Z,6.93
2023-04-03T22:46:40.155Z,6.92
2023-04-03T22:49:07.737Z,7.05
2023-04-03T22:51:34.811Z,6.95
2023-04-03T22:54:01.898Z,6.87
2023-04-03T22:56:29.461Z,6.86
2023-04-03T22:58:57.287Z,7.02
2023-04-03T23:01:25.368Z,6.97
2023-04-03T23:03:52.567Z,6.99
2023-04-03T23:06:19.859Z,6.93
2023-04-03T23:08:46.977Z,6.90
2023-04-03T23:11:14.047Z,6.89
2023-04-03T23:13:41.376Z,7.12
2023-04-03T23:16:09.089Z,7.11
2023-04-03T23:18:39.968Z,7.01
2023-04-03T23:21:08.625Z,7.14
2023-04-03T23:23:35.762Z,7.00
2023-04-03T23:26:03.348Z,7.01
2023-04-03T23:28:31.231Z,7.02
2023-04-03T23:31:03.371Z,7.03
2023-04-03T23:33:31.848Z,7.21
2023-04-03T23:36:00.846Z,7.09
2023-04-03T23:38:27.949Z,6.96
2023-04-03T23:40:55.027Z,7.16
2023-04-03T23:43:22.094Z,7.20
2023-04-03T23:45:49.203Z,7.18
2023-04-03T23:48:16.602Z,7.00
2023-04-03T23:50:44.122Z,6.91
2023-04-03T23:53:13.580Z,6.87
2023-04-03T23:55:41.427Z,6.82
2023-04-03T23:58:08.504Z,6.94
